Time;durP1;ratioP1;P1;durP2;ratioP2;P2;SDS_P1;SDS_P2;PMS_P1;PMS_P2;Temp;Humidity;BMP_temperature;BMP_pressure;BME280_temperature;BME280_humidity;BME280_pressure;Samples;Min_cycle;Max_cycle;Signal;HPM_P1;HPM_P2
2023/11/04 00:00:09;;;;;;;10.13;2.97;;;5.50;99.90;;;;;;5012461;28;20026;-81
2023/11/04 00:02:35;;;;;;;3.50;1.70;;;5.50;99.90;;;;;;5009045;28;20195;-79
2023/11/04 00:05:01;;;;;;;7.50;3.15;;;5.50;99.90;;;;;;4993965;28;20046;-82
2023/11/04 00:07:27;;;;;;;6.72;2.38;;;5.50;99.90;;;;;;5018756;28;20037;-81
2023/11/04 00:09:52;;;;;;;4.28;1.45;;;5.50;99.90;;;;;;5014545;28;20493;-81
2023/11/04 00:12:18;;;;;;;4.40;1.63;;;5.60;99.90;;;;;;5019913;28;20480;-82
2023/11/04 00:14:44;;;;;;;5.90;1.75;;;5.60;99.90;;;;;;5019893;28;20034;-81
2023/11/04 00:17:10;;;;;;;5.90;1.98;;;5.60;99.90;;;;;;5010838;28;20034;-82
2023/11/04 00:19:35;;;;;;;3.65;2.15;;;5.60;99.90;;;;;;5010737;28;20092;-83
2023/11/04 00:22:01;;;;;;;8.73;2.08;;;5.60;99.90;;;;;;5009557;28;20031;-81
2023/11/04 00:24:27;;;;;;;6.97;2.72;;;5.60;99.90;;;;;;5014537;28;20037;-81
2023/11/04 00:26:53;;;;;;;4.05;1.55;;;5.60;99.90;;;;;;5005879;28;20030;-81
2023/11/04 00:29:19;;;;;;;4.22;1.80;;;5.60;99.90;;;;;;5016823;28;20034;-81
2023/11/04 00:31:45;;;;;;;7.38;2.15;;;5.60;99.90;;;;;;5011938;28;20033;-81
2023/11/04 00:34:10;;;;;;;4.32;2.10;;;5.70;99.90;;;;;;5009716;28;20042;-81
2023/11/04 00:36:36;;;;;;;6.88;1.98;;;5.60;99.90;;;;;;5009498;28;20577;-81
2023/11/04 00:39:02;;;;;;;4.68;1.75;;;5.60;99.90;;;;;;5016702;28;20033;-82
2023/11/04 00:41:28;;;;;;;6.25;2.25;;;5.60;99.90;;;;;;4998461;28;20521;-82
2023/11/04 00:43:54;;;;;;;7.60;1.98;;;5.60;99.90;;;;;;5003165;28;20044;-82
2023/11/04 00:46:21;;;;;;;5.50;1.73;;;5.60;99.90;;;;;;5005852;28;20034;-81
2023/11/04 00:48:47;;;;;;;7.22;2.05;;;5.60;99.90;;;;;;5011765;28;20120;-81
2023/11/04 00:51:13;;;;;;;8.40;2.40;;;5.60;99.90;;;;;;5018579;28;20434;-79
2023/11/04 00:53:39;;;;;;;6.47;2.20;;;5.60;99.90;;;;;;5013932;28;20033;-81
2023/11/04 00:56:05;;;;;;;8.70;2.35;;;5.50;99.90;;;;;;5010363;28;20026;-80
2023/11/04 00:58:31;;;;;;;6.85;2.97;;;5.50;99.90;;;;;;5007815;28;20029;-78
2023/11/04 01:00:56;;;;;;;7.10;2.08;;;5.50;99.90;;;;;;5012391;28;20664;-81
2023/11/04 01:03:22;;;;;;;4.20;2.00;;;5.50;99.90;;;;;;5008081;28;20068;-80
2023/11/04 01:05:48;;;;;;;4.22;2.08;;;5.50;99.90;;;;;;5009560;28;20022;-81
2023/11/04 01:08:14;;;;;;;5.35;2.20;;;5.50;99.90;;;;;;4996760;28;20030;-80
2023/11/04 01:10:41;;;;;;;6.68;2.50;;;5.40;99.90;;;;;;5014019;28;20026;-80
2023/11/04 01:13:07;;;;;;;5.47;2.45;;;5.40;99.90;;;;;;5014663;28;20022;-80
2023/11/04 01:15:33;;;;;;;6.35;2.42;;;5.40;99.90;;;;;;5014622;28;20038;-81
2023/11/04 01:18:00;;;;;;;7.15;2.50;;;5.40;99.90;;;;;;5011714;28;20068;-80
2023/11/04 01:20:28;;;;;;;4.68;2.63;;;5.40;99.90;;;;;;5011385;28;20025;-79
2023/11/04 01:22:54;;;;;;;3.15;2.10;;;5.30;99.90;;;;;;5003800;28;20734;-83
2023/11/04 01:25:19;;;;;;;8.05;2.47;;;5.30;99.90;;;;;;5016309;28;20042;-80
2023/11/04 01:27:45;;;;;;;5.85;2.50;;;5.30;99.90;;;;;;5016714;28;20048;-81
2023/11/04 01:30:12;;;;;;;6.53;2.58;;;5.30;99.90;;;;;;5011369;28;20030;-80
2023/11/04 01:32:38;;;;;;;4.88;2.63;;;5.30;99.90;;;;;;5013373;28;20113;-80
2023/11/04 01:35:04;;;;;;;5.95;2.38;;;5.30;99.90;;;;;;5015593;28;20072;-80
2023/11/04 01:37:30;;;;;;;2.92;2.25;;;5.30;99.90;;;;;;5007758;28;20033;-82
2023/11/04 01:39:55;;;;;;;5.95;2.35;;;5.30;99.90;;;;;;5010556;28;20669;-80
2023/11/04 01:42:21;;;;;;;3.30;1.80;;;5.30;99.90;;;;;;5010214;28;20038;-81
2023/11/04 01:44:47;;;;;;;4.78;2.25;;;5.30;99.90;;;;;;4998112;28;20180;-81
2023/11/04 01:47:13;;;;;;;3.50;2.35;;;5.30;99.90;;;;;;5009590;28;20029;-81
2023/11/04 01:49:39;;;;;;;7.70;2.05;;;5.30;99.90;;;;;;5016496;28;20088;-80
2023/11/04 01:52:05;;;;;;;6.25;2.15;;;5.30;99.90;;;;;;5008244;28;20030;-81
2023/11/04 01:54:33;;;;;;;6.65;2.15;;;5.30;99.90;;;;;;5006956;28;20394;-82
2023/11/04 01:57:00;;;;;;;4.13;2.05;;;5.30;99.90;;;;;;5003136;28;20034;-81
2023/11/04 01:59:27;;;;;;;3.03;2.03;;;5.30;99.90;;;;;;5002052;28;20033;-83
2023/11/04 02:01:53;;;;;;;4.32;1.98;;;5.30;99.90;;;;;;4985104;28;20041;-81
2023/11/04 02:04:19;;;;;;;4.68;2.05;;;5.30;99.90;;;;;;5003457;28;20030;-82
2023/11/04 02:06:45;;;;;;;5.40;1.73;;;5.20;99.90;;;;;;5007927;28;20037;-80
2023/11/04 02:09:11;;;;;;;2.25;1.98;;;5.20;99.90;;;;;;5004502;28;20030;-81
2023/11/04 02:11:39;;;;;;;3.85;2.08;;;5.20;99.90;;;;;;5004184;28;20026;-82
2023/11/04 02:14:08;;;;;;;4.50;1.95;;;5.10;99.90;;;;;;5012621;28;20485;-80
2023/11/04 02:16:34;;;;;;;4.88;2.00;;;5.00;99.90;;;;;;5017682;28;20470;-82
2023/11/04 02:19:01;;;;;;;3.60;2.38;;;5.00;99.90;;;;;;5018653;28;20494;-80
2023/11/04 02:21:27;;;;;;;5.63;2.33;;;5.00;99.90;;;;;;5013249;28;20033;-82
2023/11/04 02:23:53;;;;;;;3.45;1.50;;;4.90;99.90;;;;;;5012089;28;20120;-81
2023/11/04 02:26:18;;;;;;;5.00;1.85;;;4.80;99.90;;;;;;5013089;28;20064;-82
2023/11/04 02:28:44;;;;;;;2.95;1.90;;;4.80;99.90;;;;;;5000578;28;20023;-81
2023/11/04 02:31:10;;;;;;;6.55;2.03;;;4.70;99.90;;;;;;5001661;28;20061;-81
2023/11/04 02:33:54;;;;;;;5.13;2.35;;;4.70;99.90;;;;;;5011213;28;20130;-80
2023/11/04 02:36:20;;;;;;;3.42;1.50;;;4.60;99.90;;;;;;5016806;28;20066;-80
2023/11/04 02:38:45;;;;;;;3.75;1.73;;;4.60;99.90;;;;;;5015930;28;20041;-82
2023/11/04 02:41:11;;;;;;;4.10;1.50;;;4.50;99.90;;;;;;5014605;28;20029;-81
2023/11/04 02:43:37;;;;;;;1.90;1.50;;;4.50;99.90;;;;;;5013739;28;20430;-82
2023/11/04 02:46:03;;;;;;;5.53;1.88;;;4.40;99.90;;;;;;5008945;28;20029;-82
2023/11/04 02:48:29;;;;;;;3.75;1.80;;;4.40;99.90;;;;;;5011332;28;20030;-81
2023/11/04 02:50:55;;;;;;;2.72;1.30;;;4.40;99.90;;;;;;5008444;28;20533;-83
2023/11/04 02:53:21;;;;;;;2.00;1.35;;;4.30;99.90;;;;;;5013000;28;20414;-80
2023/11/04 02:55:47;;;;;;;2.88;1.70;;;4.30;99.90;;;;;;5010069;28;20023;-83
2023/11/04 02:58:12;;;;;;;5.63;1.60;;;4.30;99.90;;;;;;4999839;28;20472;-80
2023/11/04 03:00:38;;;;;;;2.67;1.38;;;4.20;99.90;;;;;;5012286;28;20029;-83
2023/11/04 03:03:04;;;;;;;1.88;1.10;;;4.20;99.90;;;;;;5011628;28;20033;-82
2023/11/04 03:05:30;;;;;;;2.70;1.42;;;4.20;99.90;;;;;;5007389;28;21032;-80
2023/11/04 03:07:56;;;;;;;4.57;1.58;;;4.10;99.90;;;;;;5008812;28;20032;-83
2023/11/04 03:10:21;;;;;;;4.55;1.40;;;4.10;99.90;;;;;;5017413;28;20022;-82
2023/11/04 03:12:47;;;;;;;3.05;1.58;;;4.00;99.90;;;;;;5012435;28;20034;-83
2023/11/04 03:15:13;;;;;;;2.17;1.35;;;4.00;99.90;;;;;;5012773;28;20026;-82
2023/11/04 03:17:39;;;;;;;2.58;1.50;;;4.00;99.90;;;;;;5016009;28;20529;-82
2023/11/04 03:20:05;;;;;;;4.05;1.88;;;3.90;99.90;;;;;;5016848;28;20033;-80
2023/11/04 03:22:31;;;;;;;3.47;1.58;;;3.90;99.90;;;;;;5016906;28;20040;-82
2023/11/04 03:24:57;;;;;;;2.17;1.33;;;3.90;99.90;;;;;;5021973;28;20082;-82
2023/11/04 03:27:23;;;;;;;4.68;1.42;;;3.80;99.90;;;;;;5015029;28;20033;-83
2023/11/04 03:29:49;;;;;;;2.60;1.70;;;3.80;99.90;;;;;;5019384;28;20093;-82
2023/11/04 03:32:15;;;;;;;5.20;2.10;;;3.80;99.90;;;;;;5019056;28;20054;-81
2023/11/04 03:34:41;;;;;;;4.40;1.70;;;3.70;99.90;;;;;;5006195;28;20030;-81
2023/11/04 03:37:07;;;;;;;3.28;1.55;;;3.70;99.90;;;;;;5003947;28;20038;-81
2023/11/04 03:39:33;;;;;;;2.60;1.48;;;3.70;99.90;;;;;;4999372;28;20076;-82
2023/11/04 03:41:59;;;;;;;2.38;1.58;;;3.70;99.90;;;;;;5004354;28;20544;-81
2023/11/04 03:44:25;;;;;;;3.05;1.48;;;3.60;99.90;;;;;;4995980;28;20034;-81
2023/11/04 03:46:51;;;;;;;2.70;1.55;;;3.70;99.90;;;;;;5000245;28;20033;-82
2023/11/04 03:49:17;;;;;;;3.45;2.00;;;3.70;99.90;;;;;;5009969;28;20060;-81
2023/11/04 03:51:43;;;;;;;2.97;1.80;;;3.70;99.90;;;;;;5014808;28;20029;-82
2023/11/04 03:54:09;;;;;;;3.78;1.65;;;3.70;99.90;;;;;;5005776;28;20038;-81
2023/11/04 03:56:35;;;;;;;3.63;1.83;;;3.70;99.90;;;;;;5007072;28;20394;-81
2023/11/04 03:59:00;;;;;;;2.85;1.80;;;3.60;99.90;;;;;;4995901;28;20073;-81
2023/11/04 04:01:27;;;;;;;2.70;1.83;;;3.60;99.90;;;;;;5014039;28;20029;-81
2023/11/04 04:03:53;;;;;;;5.32;1.70;;;3.60;99.90;;;;;;5017567;28;20137;-82
2023/11/04 04:06:20;;;;;;;2.35;1.67;;;3.60;99.90;;;;;;5017806;28;20657;-83
2023/11/04 04:08:46;;;;;;;5.70;1.85;;;3.60;99.90;;;;;;5010009;28;20042;-81
2023/11/04 04:11:12;;;;;;;4.18;1.77;;;3.60;99.90;;;;;;5009997;28;20026;-82
2023/11/04 04:13:38;;;;;;;2.53;1.60;;;3.50;99.90;;;;;;5018120;28;20398;-82
2023/11/04 04:16:10;;;;;;;4.47;1.85;;;3.50;99.90;;;;;;5010687;28;20438;-80
2023/11/04 04:18:36;;;;;;;6.47;1.92;;;3.50;99.90;;;;;;5010330;28;20045;-82
2023/11/04 04:21:03;;;;;;;2.80;2.00;;;3.50;99.90;;;;;;5008415;28;20030;-82
2023/11/04 04:23:29;;;;;;;2.45;1.77;;;3.50;99.90;;;;;;5008130;28;20026;-82
2023/11/04 04:25:55;;;;;;;2.55;1.95;;;3.50;99.90;;;;;;5017255;28;20052;-82
2023/11/04 04:28:20;;;;;;;6.07;2.40;;;3.50;99.90;;;;;;5016547;28;20041;-79
2023/11/04 04:30:46;;;;;;;5.38;2.35;;;3.50;99.90;;;;;;5010477;28;20033;-81
2023/11/04 04:33:12;;;;;;;3.17;2.30;;;3.50;99.90;;;;;;5011286;28;20392;-82
2023/11/04 04:35:37;;;;;;;6.90;3.05;;;3.50;99.90;;;;;;5016456;28;20437;-81
2023/11/04 04:38:03;;;;;;;8.10;3.05;;;3.50;99.90;;;;;;5014748;28;20034;-83
2023/11/04 04:40:29;;;;;;;4.75;2.67;;;3.50;99.90;;;;;;5013142;28;20038;-82
2023/11/04 04:42:55;;;;;;;3.78;2.90;;;3.50;99.90;;;;;;5005078;28;20105;-83
2023/11/04 04:45:20;;;;;;;8.20;3.30;;;3.50;99.90;;;;;;5006480;28;20038;-82
2023/11/04 04:47:46;;;;;;;7.60;3.85;;;3.50;99.90;;;;;;5008455;28;20038;-81
2023/11/04 04:50:12;;;;;;;7.57;3.90;;;3.40;99.90;;;;;;5011766;28;20037;-82
2023/11/04 04:52:57;;;;;;;5.28;4.00;;;3.40;99.90;;;;;;5005405;28;20681;-80
2023/11/04 04:55:22;;;;;;;5.20;3.63;;;3.40;99.90;;;;;;5011734;28;20042;-80
2023/11/04 04:57:48;;;;;;;7.30;3.47;;;3.40;99.90;;;;;;5007666;28;20057;-82
2023/11/04 05:00:15;;;;;;;7.15;3.80;;;3.40;99.90;;;;;;5003621;28;20116;-80
2023/11/04 05:02:42;;;;;;;5.50;4.00;;;3.40;99.90;;;;;;4997831;28;20034;-82
2023/11/04 05:05:10;;;;;;;7.32;4.15;;;3.40;99.90;;;;;;5000481;28;20137;-80
2023/11/04 05:07:36;;;;;;;6.00;4.05;;;3.30;99.90;;;;;;5005901;28;20029;-83
2023/11/04 05:10:02;;;;;;;7.45;3.97;;;3.30;99.90;;;;;;4999885;28;20670;-79
2023/11/04 05:12:27;;;;;;;7.00;4.40;;;3.30;99.90;;;;;;5003782;28;20033;-80
2023/11/04 05:14:53;;;;;;;5.70;4.10;;;3.30;99.90;;;;;;5011888;28;20030;-80
2023/11/04 05:17:19;;;;;;;6.28;4.50;;;3.30;99.90;;;;;;5013251;28;20052;-82
2023/11/04 05:19:46;;;;;;;4.53;3.70;;;3.20;99.90;;;;;;5004882;28;20033;-82
2023/11/04 05:22:12;;;;;;;5.40;3.90;;;3.20;99.90;;;;;;5007374;28;20048;-80
2023/11/04 05:24:38;;;;;;;7.18;4.32;;;3.20;99.90;;;;;;5010903;28;20109;-81
2023/11/04 05:27:04;;;;;;;5.60;4.00;;;3.20;99.90;;;;;;5009698;28;20068;-80
2023/11/04 05:29:30;;;;;;;6.85;4.40;;;3.20;99.90;;;;;;5001852;28;20034;-80
2023/11/04 05:31:56;;;;;;;5.88;4.15;;;3.10;99.90;;;;;;5012277;28;20034;-81
2023/11/04 05:34:22;;;;;;;5.80;4.10;;;3.10;99.90;;;;;;5010291;28;20125;-82
2023/11/04 05:36:48;;;;;;;5.65;4.18;;;3.10;99.90;;;;;;5010853;28;20082;-81
2023/11/04 05:39:15;;;;;;;10.77;4.93;;;3.00;99.90;;;;;;5011018;28;20045;-82
2023/11/04 05:41:41;;;;;;;10.40;4.95;;;3.00;99.90;;;;;;5008292;28;20030;-80
2023/11/04 05:44:07;;;;;;;7.25;5.22;;;3.00;99.90;;;;;;5010281;28;20153;-81
2023/11/04 05:46:35;;;;;;;8.20;5.10;;;3.00;99.90;;;;;;5016685;28;20021;-82
2023/11/04 05:49:01;;;;;;;9.05;5.10;;;3.00;99.90;;;;;;5004541;28;20122;-82
2023/11/04 05:51:26;;;;;;;7.72;4.57;;;3.00;99.90;;;;;;5014732;28;20140;-79
2023/11/04 05:53:52;;;;;;;7.90;4.97;;;3.00;99.90;;;;;;5012243;28;20048;-81
2023/11/04 05:56:19;;;;;;;9.80;5.50;;;3.00;99.90;;;;;;5016753;28;20040;-82
2023/11/04 05:58:49;;;;;;;5.97;4.80;;;2.90;99.90;;;;;;5011734;28;20141;-80
2023/11/04 06:01:15;;;;;;;8.13;4.50;;;2.90;99.90;;;;;;5008800;28;20533;-81
2023/11/04 06:03:40;;;;;;;8.80;4.88;;;2.90;99.90;;;;;;5011214;28;20168;-83
2023/11/04 06:06:06;;;;;;;10.80;4.80;;;2.90;99.90;;;;;;5008867;28;20637;-80
2023/11/04 06:08:35;;;;;;;7.30;5.13;;;3.00;99.90;;;;;;5007782;28;20065;-82
2023/11/04 06:11:02;;;;;;;9.65;5.18;;;3.00;99.90;;;;;;5010688;28;20119;-80
2023/11/04 06:13:29;;;;;;;6.70;5.35;;;3.00;99.90;;;;;;5019425;28;20060;-82
2023/11/04 06:15:54;;;;;;;6.97;4.60;;;2.90;99.90;;;;;;5015444;28;20030;-83
2023/11/04 06:18:20;;;;;;;7.95;4.85;;;2.90;99.90;;;;;;5013985;28;20049;-82
2023/11/04 06:20:46;;;;;;;8.63;5.35;;;2.90;99.90;;;;;;5015779;28;20065;-82
2023/11/04 06:23:12;;;;;;;6.50;5.13;;;2.90;99.90;;;;;;4999261;28;20044;-83
2023/11/04 06:25:38;;;;;;;8.75;5.07;;;2.90;99.90;;;;;;5010608;28;20033;-82
2023/11/04 06:28:06;;;;;;;9.40;5.15;;;2.90;99.90;;;;;;5011365;28;20778;-83
2023/11/04 06:30:32;;;;;;;7.75;4.82;;;2.90;99.90;;;;;;5018709;28;20037;-83
2023/11/04 06:32:58;;;;;;;8.30;5.10;;;2.90;99.90;;;;;;4996679;28;20421;-82
2023/11/04 06:35:24;;;;;;;6.68;5.00;;;2.90;99.90;;;;;;5016718;28;20077;-82
2023/11/04 06:37:51;;;;;;;7.80;5.38;;;2.90;99.90;;;;;;5010714;28;20065;-83
2023/11/04 06:40:17;;;;;;;8.07;5.55;;;2.90;99.90;;;;;;5014515;28;20038;-83
2023/11/04 06:42:42;;;;;;;9.45;5.50;;;3.00;99.90;;;;;;5008328;28;20022;-83
2023/11/04 06:45:09;;;;;;;7.18;5.53;;;3.00;99.90;;;;;;5015632;28;20030;-82
2023/11/04 06:47:36;;;;;;;9.35;5.07;;;3.10;99.90;;;;;;5013288;28;20491;-82
2023/11/04 06:50:04;;;;;;;8.85;5.15;;;3.10;99.90;;;;;;4997318;28;20058;-83
2023/11/04 06:52:31;;;;;;;7.78;5.30;;;3.20;99.90;;;;;;5013062;28;20061;-83
2023/11/04 06:54:57;;;;;;;8.77;5.28;;;3.30;99.90;;;;;;5007704;28;20403;-82
2023/11/04 06:57:23;;;;;;;9.70;5.25;;;3.40;99.90;;;;;;5004815;28;20025;-83
2023/11/04 06:59:48;;;;;;;9.25;5.55;;;3.40;99.90;;;;;;5011095;28;20026;-80
2023/11/04 07:02:15;;;;;;;9.25;5.38;;;3.40;99.90;;;;;;5013612;28;20129;-80
2023/11/04 07:04:41;;;;;;;8.07;5.55;;;3.50;99.90;;;;;;5011663;28;20022;-80
2023/11/04 07:07:07;;;;;;;9.45;5.20;;;3.60;99.90;;;;;;4997885;28;20112;-83
2023/11/04 07:09:36;;;;;;;7.90;4.90;;;3.70;99.90;;;;;;5016030;28;20060;-82
2023/11/04 07:12:02;;;;;;;10.68;5.03;;;3.80;99.90;;;;;;5011200;28;20030;-81
2023/11/04 07:14:30;;;;;;;9.05;5.70;;;3.90;99.90;;;;;;5014938;28;20097;-81
2023/11/04 07:16:56;;;;;;;8.60;5.25;;;4.10;99.90;;;;;;4993730;28;20050;-81
2023/11/04 07:19:21;;;;;;;7.97;5.13;;;4.30;99.90;;;;;;5005675;28;20034;-82
2023/11/04 07:21:47;;;;;;;6.57;4.40;;;4.50;99.90;;;;;;5014748;28;20030;-82
2023/11/04 07:24:13;;;;;;;8.15;4.63;;;4.50;99.90;;;;;;5014652;28;20018;-81
2023/11/04 07:26:39;;;;;;;9.48;4.82;;;4.50;99.90;;;;;;5009809;28;20563;-81
2023/11/04 07:29:06;;;;;;;7.47;4.20;;;4.60;99.90;;;;;;5017419;28;20026;-82
2023/11/04 07:31:35;;;;;;;6.40;4.13;;;4.50;99.90;;;;;;5012383;28;20096;-80
2023/11/04 07:34:05;;;;;;;11.32;4.65;;;4.60;99.90;;;;;;5012413;28;20038;-81
2023/11/04 07:36:31;;;;;;;2.83;2.53;;;4.60;99.90;;;;;;5013538;28;20150;-82
2023/11/04 07:38:57;;;;;;;5.57;2.90;;;4.60;99.90;;;;;;5008093;28;20034;-82
2023/11/04 07:41:23;;;;;;;4.88;3.85;;;4.60;99.90;;;;;;5009510;28;20046;-82
2023/11/04 07:43:51;;;;;;;6.60;4.53;;;4.60;99.90;;;;;;5008142;28;20570;-81
2023/11/04 07:46:16;;;;;;;6.00;4.10;;;4.70;99.90;;;;;;5009417;28;20036;-81
2023/11/04 07:48:42;;;;;;;4.90;3.60;;;4.70;99.90;;;;;;5009234;28;20029;-82
2023/11/04 07:51:11;;;;;;;3.40;2.85;;;4.80;99.90;;;;;;5002819;28;20837;-83
2023/11/04 07:53:37;;;;;;;3.42;2.80;;;4.80;99.90;;;;;;5007178;28;20433;-83
2023/11/04 07:56:03;;;;;;;5.05;2.83;;;4.90;99.90;;;;;;5006511;28;20042;-82
2023/11/04 07:58:29;;;;;;;6.18;3.53;;;4.90;99.90;;;;;;5010151;28;20137;-81
2023/11/04 08:00:55;;;;;;;7.00;4.50;;;4.90;99.90;;;;;;5003050;28;20338;-81
2023/11/04 08:03:20;;;;;;;7.22;4.70;;;5.00;99.90;;;;;;5006211;28;20066;-83
2023/11/04 08:05:46;;;;;;;7.20;4.90;;;5.20;99.90;;;;;;5015976;28;20121;-82
2023/11/04 08:08:14;;;;;;;7.68;4.47;;;5.30;99.90;;;;;;5010365;28;20030;-81
2023/11/04 08:10:40;;;;;;;7.28;4.57;;;5.30;99.90;;;;;;5003220;28;20040;-83
2023/11/04 08:13:06;;;;;;;7.07;4.10;;;5.40;99.90;;;;;;5008523;28;20074;-82
2023/11/04 08:15:31;;;;;;;5.68;3.78;;;5.50;99.90;;;;;;5019291;28;20105;-81
2023/11/04 08:18:00;;;;;;;4.45;3.40;;;5.50;99.90;;;;;;5023427;28;20034;-81
2023/11/04 08:20:26;;;;;;;6.47;3.72;;;5.60;99.90;;;;;;5012276;28;20088;-82
2023/11/04 08:22:52;;;;;;;5.55;4.00;;;5.60;99.90;;;;;;5019338;28;20041;-81
2023/11/04 08:25:18;;;;;;;5.50;3.75;;;5.70;99.90;;;;;;5017739;28;20032;-82
2023/11/04 08:27:44;;;;;;;8.27;3.60;;;5.60;99.90;;;;;;5012691;28;20057;-80
2023/11/04 08:30:10;;;;;;;5.47;4.53;;;5.70;99.90;;;;;;5017201;28;20026;-82
2023/11/04 08:32:36;;;;;;;3.95;3.42;;;5.70;99.90;;;;;;5006607;28;20057;-82
2023/11/04 08:35:01;;;;;;;6.38;3.85;;;5.80;99.90;;;;;;5002114;28;20685;-82
2023/11/04 08:37:27;;;;;;;5.07;3.47;;;5.90;99.90;;;;;;5009336;28;20124;-82
2023/11/04 08:39:54;;;;;;;4.82;3.70;;;5.90;99.90;;;;;;5016238;28;20042;-81
2023/11/04 08:42:20;;;;;;;4.65;3.30;;;5.90;99.90;;;;;;5012320;28;20032;-81
2023/11/04 08:44:46;;;;;;;3.90;3.45;;;6.00;99.90;;;;;;5014502;28;20026;-80
2023/11/04 08:47:12;;;;;;;4.85;3.92;;;6.00;99.90;;;;;;5015599;28;20034;-81
2023/11/04 08:49:37;;;;;;;5.47;3.58;;;6.00;99.90;;;;;;5004828;28;20034;-80
2023/11/04 08:52:04;;;;;;;5.65;3.67;;;6.10;99.90;;;;;;5007181;28;20514;-82
2023/11/04 08:54:30;;;;;;;5.53;3.85;;;6.10;99.90;;;;;;5014539;28;20041;-79
2023/11/04 08:56:56;;;;;;;5.82;3.30;;;6.20;99.90;;;;;;5015457;28;20018;-81
2023/11/04 08:59:21;;;;;;;5.05;3.33;;;6.20;99.90;;;;;;5013955;28;20118;-81
2023/11/04 09:01:47;;;;;;;6.28;3.72;;;6.30;99.90;;;;;;5014504;28;20030;-80
2023/11/04 09:04:13;;;;;;;7.90;4.07;;;6.30;99.90;;;;;;5011934;28;20096;-81
2023/11/04 09:06:39;;;;;;;4.80;3.50;;;6.30;99.90;;;;;;5008544;28;20092;-80
2023/11/04 09:09:07;;;;;;;5.55;3.55;;;6.30;99.90;;;;;;5006845;28;20014;-82
2023/11/04 09:11:34;;;;;;;5.80;3.75;;;6.40;99.90;;;;;;5003507;28;20044;-82
2023/11/04 09:14:04;;;;;;;5.75;3.78;;;6.50;99.90;;;;;;4999567;28;20034;-81
2023/11/04 09:16:33;;;;;;;5.55;3.05;;;6.50;99.90;;;;;;5006580;28;20044;-82
2023/11/04 09:19:00;;;;;;;5.78;3.83;;;6.50;99.90;;;;;;4999918;28;20022;-80
2023/11/04 09:21:26;;;;;;;4.45;3.85;;;6.60;99.90;;;;;;4999219;28;20109;-81
2023/11/04 09:23:52;;;;;;;3.63;2.88;;;6.70;99.90;;;;;;4998465;28;20033;-81
2023/11/04 09:26:19;;;;;;;5.32;3.80;;;6.70;99.90;;;;;;5009234;28;20026;-80
2023/11/04 09:28:44;;;;;;;4.55;3.13;;;6.80;99.90;;;;;;5008818;28;20029;-81
2023/11/04 09:31:10;;;;;;;3.33;2.80;;;7.00;99.90;;;;;;4995627;28;20038;-79
2023/11/04 09:33:36;;;;;;;3.17;2.72;;;7.00;99.90;;;;;;5013891;28;20044;-80
2023/11/04 09:36:03;;;;;;;4.85;3.53;;;7.00;99.90;;;;;;5014268;28;20034;-79
2023/11/04 09:38:29;;;;;;;3.50;3.15;;;7.10;99.90;;;;;;5014133;28;20061;-81
2023/11/04 09:40:55;;;;;;;5.00;2.83;;;7.00;99.90;;;;;;5011029;28;20507;-81
2023/11/04 09:43:22;;;;;;;2.97;2.58;;;7.10;99.90;;;;;;5010796;28;20045;-80
2023/11/04 09:45:48;;;;;;;3.42;2.40;;;7.30;99.90;;;;;;5011992;28;20394;-81
2023/11/04 09:48:13;;;;;;;4.50;2.95;;;7.40;99.90;;;;;;5014501;28;20052;-81
2023/11/04 09:50:39;;;;;;;3.05;2.53;;;7.50;99.90;;;;;;5007914;28;20030;-79
2023/11/04 09:53:27;;;;;;;3.20;2.60;;;7.60;99.90;;;;;;5011906;28;20112;-82
2023/11/04 09:55:54;;;;;;;4.32;2.33;;;7.70;99.90;;;;;;5011670;28;20039;-81
2023/11/04 09:58:20;;;;;;;2.83;2.17;;;7.80;99.90;;;;;;5003144;28;20034;-79
2023/11/04 10:00:46;;;;;;;4.68;3.15;;;7.90;99.90;;;;;;5004935;28;20026;-79
2023/11/04 10:03:13;;;;;;;4.10;2.70;;;8.10;99.90;;;;;;5004321;28;20595;-80
2023/11/04 10:05:38;;;;;;;2.75;2.13;;;8.20;99.90;;;;;;5002103;28;20469;-78
2023/11/04 10:08:04;;;;;;;4.72;2.25;;;8.40;99.90;;;;;;5001520;28;20022;-78
2023/11/04 10:10:30;;;;;;;2.83;2.10;;;8.50;99.90;;;;;;5002184;28;20109;-79
2023/11/04 10:13:01;;;;;;;2.08;1.70;;;8.60;99.90;;;;;;5000120;28;20037;-79
2023/11/04 10:15:27;;;;;;;2.35;1.98;;;8.60;99.90;;;;;;4999423;28;20073;-79
2023/11/04 10:17:54;;;;;;;1.90;1.70;;;8.70;99.90;;;;;;4998148;28;20053;-78
2023/11/04 10:20:20;;;;;;;1.65;1.45;;;8.60;99.90;;;;;;5000353;28;20073;-79
2023/11/04 10:22:46;;;;;;;1.90;1.52;;;8.50;99.90;;;;;;5009119;28;20690;-81
2023/11/04 10:25:12;;;;;;;2.20;2.00;;;8.50;99.90;;;;;;4996679;28;20455;-80
2023/11/04 10:27:38;;;;;;;4.43;2.00;;;8.40;99.90;;;;;;5008335;28;20032;-79
2023/11/04 10:30:08;;;;;;;2.72;1.60;;;8.40;99.90;;;;;;4996242;28;20037;-82
2023/11/04 10:32:36;;;;;;;1.85;1.42;;;8.30;99.90;;;;;;5005562;28;20508;-79
2023/11/04 10:35:03;;;;;;;1.73;1.60;;;8.30;99.90;;;;;;5000453;28;20030;-79
2023/11/04 10:37:33;;;;;;;1.95;1.30;;;8.30;99.90;;;;;;5009392;28;20112;-80
2023/11/04 10:40:07;;;;;;;3.58;1.70;;;8.40;99.90;;;;;;5007069;28;20080;-81
2023/11/04 10:42:44;;;;;;;1.95;1.60;;;8.40;99.90;;;;;;5008716;28;20037;-79
2023/11/04 10:45:18;;;;;;;2.45;1.70;;;8.40;99.90;;;;;;5006890;28;20108;-79
2023/11/04 10:48:09;;;;;;;3.20;1.80;;;8.50;99.90;;;;;;5003083;28;20459;-78
2023/11/04 10:50:43;;;;;;;1.30;1.10;;;8.50;99.90;;;;;;5008233;28;20053;-80
2023/11/04 10:53:38;;;;;;;2.22;1.40;;;8.60;99.90;;;;;;5009782;28;20022;-81
2023/11/04 10:56:14;;;;;;;3.22;1.70;;;8.60;99.90;;;;;;5003216;28;20041;-77
2023/11/04 10:59:24;;;;;;;1.30;1.20;;;8.50;99.90;;;;;;5010651;28;20665;-78
2023/11/04 11:01:50;;;;;;;1.15;1.00;;;8.50;99.90;;;;;;4996236;28;20126;-77
2023/11/04 11:04:18;;;;;;;2.28;1.08;;;8.50;99.90;;;;;;5003041;28;20038;-80
2023/11/04 11:06:45;;;;;;;1.75;1.15;;;8.50;99.90;;;;;;5003855;28;20636;-78
2023/11/04 11:09:13;;;;;;;1.60;1.15;;;8.50;99.90;;;;;;5007926;28;20018;-79
2023/11/04 11:11:54;;;;;;;1.30;1.10;;;8.40;99.90;;;;;;5008112;28;20689;-79
2023/11/04 11:14:20;;;;;;;0.95;0.85;;;8.50;99.90;;;;;;5008373;28;20025;-80
2023/11/04 11:16:57;;;;;;;1.50;0.88;;;8.50;99.90;;;;;;5006910;28;20557;-79
2023/11/04 11:19:23;;;;;;;0.75;0.75;;;8.50;99.90;;;;;;5007325;28;20754;-78
2023/11/04 11:21:49;;;;;;;1.00;0.90;;;8.50;99.90;;;;;;5007976;28;20589;-79
2023/11/04 11:24:16;;;;;;;1.25;1.02;;;8.50;99.90;;;;;;5009433;28;20044;-79
2023/11/04 11:26:47;;;;;;;1.33;0.90;;;8.60;99.90;;;;;;5006426;28;20034;-78
2023/11/04 11:29:23;;;;;;;2.40;0.60;;;8.80;99.90;;;;;;5008248;28;20061;-79
2023/11/04 11:31:51;;;;;;;0.88;0.70;;;8.90;99.90;;;;;;5010054;28;20038;-79
2023/11/04 11:34:18;;;;;;;1.67;0.68;;;8.90;99.90;;;;;;5006675;28;20390;-79
2023/11/04 11:36:49;;;;;;;0.75;0.65;;;8.90;99.90;;;;;;5009990;28;20048;-77
2023/11/04 11:39:15;;;;;;;1.25;0.70;;;8.90;99.90;;;;;;5008511;28;20038;-79
2023/11/04 11:41:43;;;;;;;0.68;0.68;;;8.80;99.90;;;;;;5000040;28;20075;-79
2023/11/04 11:44:11;;;;;;;2.80;0.90;;;8.80;99.90;;;;;;4999358;28;20447;-79
2023/11/04 11:46:38;;;;;;;1.08;0.60;;;8.80;99.90;;;;;;4997888;28;20141;-78
2023/11/04 11:49:05;;;;;;;1.17;0.60;;;8.80;99.90;;;;;;4999623;28;20136;-76
2023/11/04 11:51:31;;;;;;;0.50;0.50;;;8.80;99.90;;;;;;5001601;28;20038;-76
2023/11/04 11:53:56;;;;;;;0.40;0.40;;;8.80;99.90;;;;;;5004483;28;20037;-77
2023/11/04 11:56:22;;;;;;;0.40;0.40;;;8.80;99.90;;;;;;5005404;28;20041;-77
2023/11/04 11:58:48;;;;;;;0.90;0.50;;;8.90;99.90;;;;;;5004555;28;20028;-75
2023/11/04 12:01:16;;;;;;;0.98;0.50;;;8.90;99.90;;;;;;5006355;28;20624;-76
2023/11/04 12:03:42;;;;;;;2.40;0.75;;;9.00;99.90;;;;;;5005576;28;20045;-77
2023/11/04 12:06:11;;;;;;;0.50;0.50;;;9.00;99.90;;;;;;5005726;28;20030;-77
2023/11/04 12:08:37;;;;;;;1.15;0.63;;;9.10;99.90;;;;;;5003659;28;20099;-76
2023/11/04 12:11:03;;;;;;;0.95;0.50;;;9.10;99.90;;;;;;5002823;28;20037;-75
2023/11/04 12:13:29;;;;;;;1.00;0.60;;;9.20;99.90;;;;;;5005371;28;20490;-76
2023/11/04 12:15:55;;;;;;;0.73;0.45;;;9.20;99.90;;;;;;4999073;28;20084;-77
2023/11/04 12:18:21;;;;;;;0.60;0.50;;;9.20;99.90;;;;;;5001011;28;20795;-77
2023/11/04 12:20:46;;;;;;;1.45;0.50;;;9.20;99.90;;;;;;5005604;28;20033;-77
2023/11/04 12:23:15;;;;;;;0.35;0.35;;;9.20;99.90;;;;;;5004985;28;20120;-76
2023/11/04 12:25:42;;;;;;;0.40;0.40;;;9.20;99.90;;;;;;5005063;28;20091;-77
2023/11/04 12:28:09;;;;;;;0.30;0.28;;;9.10;99.90;;;;;;5005048;28;20025;-74
2023/11/04 12:30:35;;;;;;;0.75;0.50;;;9.10;99.90;;;;;;5002328;28;20708;-77
2023/11/04 12:33:02;;;;;;;0.50;0.50;;;9.10;99.90;;;;;;5003790;28;20026;-76
2023/11/04 12:35:31;;;;;;;5.88;1.00;;;9.00;99.90;;;;;;5002215;28;20034;-76
2023/11/04 12:38:00;;;;;;;2.75;0.47;;;9.00;99.90;;;;;;4997858;28;20565;-76
2023/11/04 12:40:29;;;;;;;1.45;0.70;;;9.00;99.90;;;;;;5002389;28;20087;-76
2023/11/04 12:43:01;;;;;;;0.50;0.50;;;9.00;99.90;;;;;;5004163;28;20129;-76
2023/11/04 12:45:27;;;;;;;0.68;0.50;;;9.00;99.90;;;;;;5006923;28;20681;-76
2023/11/04 12:47:54;;;;;;;2.05;0.50;;;9.00;99.90;;;;;;5002424;28;20034;-76
2023/11/04 12:50:20;;;;;;;0.57;0.57;;;9.00;99.90;;;;;;5002916;28;20018;-76
2023/11/04 12:52:46;;;;;;;0.52;0.40;;;9.00;99.90;;;;;;5003676;28;20033;-76
2023/11/04 12:55:13;;;;;;;1.42;0.60;;;9.00;99.90;;;;;;4999661;28;20117;-75